sensor_id;sensor_type;location;lat;lon;timestamp;P1;durP1;ratioP1;P2;durP2;ratioP2
10343;SDS011;5217;43.960;10.954;2023-05-29T00:00:52;5.78;;;4.97;;
10343;SDS011;5217;43.960;10.954;2023-05-29T00:03:20;5.28;;;4.78;;
10343;SDS011;5217;43.960;10.954;2023-05-29T00:05:48;5.35;;;4.78;;
10343;SDS011;5217;43.960;10.954;2023-05-29T00:08:17;5.05;;;4.55;;
10343;SDS011;5217;43.960;10.954;2023-05-29T00:10:47;5.30;;;4.78;;
10343;SDS011;5217;43.960;10.954;2023-05-29T00:13:15;7.68;;;4.50;;
10343;SDS011;5217;43.960;10.954;2023-05-29T00:15:44;4.75;;;4.30;;
10343;SDS011;5217;43.960;10.954;2023-05-29T00:18:12;5.30;;;4.80;;
10343;SDS011;5217;43.960;10.954;2023-05-29T00:20:41;5.30;;;4.80;;
10343;SDS011;5217;43.960;10.954;2023-05-29T00:23:09;5.80;;;5.05;;
10343;SDS011;5217;43.960;10.954;2023-05-29T00:25:38;5.30;;;4.85;;
10343;SDS011;5217;43.960;10.954;2023-05-29T00:28:09;5.22;;;4.28;;
10343;SDS011;5217;43.960;10.954;2023-05-29T00:30:38;5.68;;;5.18;;
10343;SDS011;5217;43.960;10.954;2023-05-29T00:33:07;5.00;;;4.60;;
10343;SDS011;5217;43.960;10.954;2023-05-29T00:35:35;5.03;;;4.50;;
10343;SDS011;5217;43.960;10.954;2023-05-29T00:38:04;5.10;;;4.53;;
10343;SDS011;5217;43.960;10.954;2023-05-29T00:40:32;5.32;;;4.43;;
10343;SDS011;5217;43.960;10.954;2023-05-29T00:43:00;5.93;;;5.30;;
10343;SDS011;5217;43.960;10.954;2023-05-29T00:45:30;5.25;;;4.60;;
10343;SDS011;5217;43.960;10.954;2023-05-29T00:48:02;5.15;;;4.72;;
10343;SDS011;5217;43.960;10.954;2023-05-29T00:50:31;5.65;;;5.15;;
10343;SDS011;5217;43.960;10.954;2023-05-29T00:53:00;6.03;;;4.43;;
10343;SDS011;5217;43.960;10.954;2023-05-29T00:55:30;4.90;;;4.45;;
10343;SDS011;5217;43.960;10.954;2023-05-29T00:57:59;4.78;;;4.35;;
10343;SDS011;5217;43.960;10.954;2023-05-29T01:00:27;4.75;;;4.30;;
10343;SDS011;5217;43.960;10.954;2023-05-29T01:02:58;5.05;;;4.55;;
10343;SDS011;5217;43.960;10.954;2023-05-29T01:05:29;4.82;;;4.43;;
10343;SDS011;5217;43.960;10.954;2023-05-29T01:07:58;5.28;;;4.32;;
10343;SDS011;5217;43.960;10.954;2023-05-29T01:10:28;4.78;;;4.38;;
10343;SDS011;5217;43.960;10.954;2023-05-29T01:12:59;5.13;;;4.63;;
10343;SDS011;5217;43.960;10.954;2023-05-29T01:15:34;6.82;;;4.75;;
10343;SDS011;5217;43.960;10.954;2023-05-29T01:18:21;5.07;;;4.68;;
10343;SDS011;5217;43.960;10.954;2023-05-29T01:20:57;4.60;;;4.22;;
10343;SDS011;5217;43.960;10.954;2023-05-29T01:23:37;4.90;;;4.50;;
10343;SDS011;5217;43.960;10.954;2023-05-29T01:26:21;5.20;;;4.70;;
10343;SDS011;5217;43.960;10.954;2023-05-29T01:29:14;4.70;;;4.30;;
10343;SDS011;5217;43.960;10.954;2023-05-29T01:31:46;5.05;;;4.60;;
10343;SDS011;5217;43.960;10.954;2023-05-29T01:34:16;4.93;;;4.53;;
10343;SDS011;5217;43.960;10.954;2023-05-29T01:36:44;4.78;;;4.28;;
10343;SDS011;5217;43.960;10.954;2023-05-29T01:39:13;4.90;;;4.50;;
10343;SDS011;5217;43.960;10.954;2023-05-29T01:41:42;4.90;;;4.40;;
10343;SDS011;5217;43.960;10.954;2023-05-29T01:44:14;4.80;;;4.30;;
10343;SDS011;5217;43.960;10.954;2023-05-29T01:46:44;4.93;;;4.47;;
10343;SDS011;5217;43.960;10.954;2023-05-29T01:49:13;4.75;;;4.35;;
10343;SDS011;5217;43.960;10.954;2023-05-29T01:51:42;5.03;;;4.63;;
10343;SDS011;5217;43.960;10.954;2023-05-29T01:54:11;4.88;;;4.47;;
10343;SDS011;5217;43.960;10.954;2023-05-29T01:56:40;5.60;;;5.10;;
10343;SDS011;5217;43.960;10.954;2023-05-29T01:59:08;5.18;;;4.70;;
10343;SDS011;5217;43.960;10.954;2023-05-29T02:01:41;6.72;;;4.57;;
10343;SDS011;5217;43.960;10.954;2023-05-29T02:04:09;4.72;;;4.32;;
10343;SDS011;5217;43.960;10.954;2023-05-29T02:06:38;6.10;;;4.75;;
10343;SDS011;5217;43.960;10.954;2023-05-29T02:09:07;5.18;;;4.68;;
10343;SDS011;5217;43.960;10.954;2023-05-29T02:11:36;5.15;;;4.65;;
10343;SDS011;5217;43.960;10.954;2023-05-29T02:14:04;5.05;;;4.55;;
10343;SDS011;5217;43.960;10.954;2023-05-29T02:16:32;5.57;;;5.05;;
10343;SDS011;5217;43.960;10.954;2023-05-29T02:19:03;5.15;;;4.65;;
10343;SDS011;5217;43.960;10.954;2023-05-29T02:21:31;5.25;;;4.75;;
10343;SDS011;5217;43.960;10.954;2023-05-29T02:23:59;6.35;;;4.65;;
10343;SDS011;5217;43.960;10.954;2023-05-29T02:26:28;5.75;;;5.18;;
10343;SDS011;5217;43.960;10.954;2023-05-29T02:28:56;6.07;;;4.97;;
10343;SDS011;5217;43.960;10.954;2023-05-29T02:31:25;5.32;;;4.82;;
10343;SDS011;5217;43.960;10.954;2023-05-29T02:33:53;5.50;;;5.00;;
10343;SDS011;5217;43.960;10.954;2023-05-29T02:36:23;5.38;;;4.60;;
10343;SDS011;5217;43.960;10.954;2023-05-29T02:38:52;5.47;;;4.82;;
10343;SDS011;5217;43.960;10.954;2023-05-29T02:41:20;5.22;;;4.78;;
10343;SDS011;5217;43.960;10.954;2023-05-29T02:43:48;5.47;;;5.07;;
10343;SDS011;5217;43.960;10.954;2023-05-29T02:46:17;5.45;;;4.95;;
10343;SDS011;5217;43.960;10.954;2023-05-29T02:48:46;5.88;;;5.28;;
10343;SDS011;5217;43.960;10.954;2023-05-29T02:51:14;5.30;;;4.80;;
10343;SDS011;5217;43.960;10.954;2023-05-29T02:53:44;5.85;;;5.35;;
10343;SDS011;5217;43.960;10.954;2023-05-29T02:56:14;5.75;;;5.25;;
10343;SDS011;5217;43.960;10.954;2023-05-29T02:58:43;5.65;;;5.18;;
10343;SDS011;5217;43.960;10.954;2023-05-29T03:01:11;5.80;;;5.30;;
10343;SDS011;5217;43.960;10.954;2023-05-29T03:03:40;5.93;;;5.40;;
10343;SDS011;5217;43.960;10.954;2023-05-29T03:06:08;5.72;;;5.05;;
10343;SDS011;5217;43.960;10.954;2023-05-29T03:08:38;5.72;;;5.22;;
10343;SDS011;5217;43.960;10.954;2023-05-29T03:11:08;5.60;;;5.10;;
10343;SDS011;5217;43.960;10.954;2023-05-29T03:13:37;5.88;;;5.38;;
10343;SDS011;5217;43.960;10.954;2023-05-29T03:16:06;5.50;;;5.00;;
10343;SDS011;5217;43.960;10.954;2023-05-29T03:18:34;5.90;;;5.35;;
10343;SDS011;5217;43.960;10.954;2023-05-29T03:21:03;7.07;;;5.30;;
10343;SDS011;5217;43.960;10.954;2023-05-29T03:23:31;6.03;;;5.47;;
10343;SDS011;5217;43.960;10.954;2023-05-29T03:25:59;5.72;;;5.22;;
10343;SDS011;5217;43.960;10.954;2023-05-29T03:28:29;6.10;;;5.50;;
10343;SDS011;5217;43.960;10.954;2023-05-29T03:30:58;6.05;;;5.47;;
10343;SDS011;5217;43.960;10.954;2023-05-29T03:33:26;6.00;;;5.32;;
10343;SDS011;5217;43.960;10.954;2023-05-29T03:35:55;5.80;;;5.30;;
10343;SDS011;5217;43.960;10.954;2023-05-29T03:38:23;6.28;;;5.68;;
10343;SDS011;5217;43.960;10.954;2023-05-29T03:40:51;5.97;;;5.43;;
10343;SDS011;5217;43.960;10.954;2023-05-29T03:43:20;6.00;;;5.40;;
10343;SDS011;5217;43.960;10.954;2023-05-29T03:45:50;5.72;;;5.22;;
10343;SDS011;5217;43.960;10.954;2023-05-29T03:48:18;5.80;;;5.30;;
10343;SDS011;5217;43.960;10.954;2023-05-29T03:50:47;5.78;;;5.28;;
10343;SDS011;5217;43.960;10.954;2023-05-29T03:53:15;5.75;;;5.25;;
10343;SDS011;5217;43.960;10.954;2023-05-29T03:55:44;5.60;;;5.10;;
10343;SDS011;5217;43.960;10.954;2023-05-29T03:58:12;5.47;;;4.97;;
10343;SDS011;5217;43.960;10.954;2023-05-29T04:00:42;5.43;;;5.00;;
10343;SDS011;5217;43.960;10.954;2023-05-29T04:03:11;5.90;;;5.30;;
10343;SDS011;5217;43.960;10.954;2023-05-29T04:05:40;5.78;;;5.28;;
10343;SDS011;5217;43.960;10.954;2023-05-29T04:08:08;5.50;;;5.00;;
10343;SDS011;5217;43.960;10.954;2023-05-29T04:10:41;5.63;;;5.20;;
10343;SDS011;5217;43.960;10.954;2023-05-29T04:13:10;5.60;;;5.10;;
10343;SDS011;5217;43.960;10.954;2023-05-29T04:15:38;6.18;;;5.68;;
10343;SDS011;5217;43.960;10.954;2023-05-29T04:18:08;5.72;;;5.22;;
10343;SDS011;5217;43.960;10.954;2023-05-29T04:20:38;5.65;;;5.15;;
10343;SDS011;5217;43.960;10.954;2023-05-29T04:23:06;5.90;;;5.40;;
10343;SDS011;5217;43.960;10.954;2023-05-29T04:25:35;5.50;;;5.05;;
10343;SDS011;5217;43.960;10.954;2023-05-29T04:28:04;5.40;;;4.93;;
10343;SDS011;5217;43.960;10.954;2023-05-29T04:30:32;5.60;;;5.10;;
10343;SDS011;5217;43.960;10.954;2023-05-29T04:33:02;5.65;;;5.15;;
10343;SDS011;5217;43.960;10.954;2023-05-29T04:35:31;5.60;;;5.10;;
10343;SDS011;5217;43.960;10.954;2023-05-29T04:38:01;5.50;;;5.00;;
10343;SDS011;5217;43.960;10.954;2023-05-29T04:40:31;7.65;;;5.25;;
10343;SDS011;5217;43.960;10.954;2023-05-29T04:42:59;5.30;;;4.90;;
10343;SDS011;5217;43.960;10.954;2023-05-29T04:45:28;6.22;;;5.50;;
10343;SDS011;5217;43.960;10.954;2023-05-29T04:47:56;5.90;;;5.40;;
10343;SDS011;5217;43.960;10.954;2023-05-29T04:50:25;5.55;;;5.05;;
10343;SDS011;5217;43.960;10.954;2023-05-29T04:52:56;5.88;;;5.30;;
10343;SDS011;5217;43.960;10.954;2023-05-29T04:55:26;6.15;;;5.55;;
10343;SDS011;5217;43.960;10.954;2023-05-29T04:57:54;5.80;;;5.18;;
10343;SDS011;5217;43.960;10.954;2023-05-29T05:00:23;6.10;;;5.47;;
10343;SDS011;5217;43.960;10.954;2023-05-29T05:02:52;5.70;;;5.20;;
10343;SDS011;5217;43.960;10.954;2023-05-29T05:05:20;6.43;;;5.35;;
10343;SDS011;5217;43.960;10.954;2023-05-29T05:07:49;5.57;;;5.07;;
10343;SDS011;5217;43.960;10.954;2023-05-29T05:10:17;5.13;;;4.72;;
10343;SDS011;5217;43.960;10.954;2023-05-29T05:12:47;5.53;;;5.03;;
10343;SDS011;5217;43.960;10.954;2023-05-29T05:15:15;5.50;;;5.00;;
10343;SDS011;5217;43.960;10.954;2023-05-29T05:17:44;5.55;;;5.05;;
10343;SDS011;5217;43.960;10.954;2023-05-29T05:20:14;8.52;;;6.05;;
10343;SDS011;5217;43.960;10.954;2023-05-29T05:22:43;10.85;;;5.90;;
10343;SDS011;5217;43.960;10.954;2023-05-29T05:25:11;6.93;;;5.88;;
10343;SDS011;5217;43.960;10.954;2023-05-29T05:27:41;6.35;;;5.50;;
10343;SDS011;5217;43.960;10.954;2023-05-29T05:30:11;7.28;;;5.35;;
10343;SDS011;5217;43.960;10.954;2023-05-29T05:32:40;6.65;;;5.00;;
10343;SDS011;5217;43.960;10.954;2023-05-29T05:35:09;6.50;;;5.38;;
10343;SDS011;5217;43.960;10.954;2023-05-29T05:37:37;5.97;;;5.40;;
10343;SDS011;5217;43.960;10.954;2023-05-29T05:40:07;5.82;;;5.32;;
10343;SDS011;5217;43.960;10.954;2023-05-29T05:42:36;7.40;;;5.50;;
10343;SDS011;5217;43.960;10.954;2023-05-29T05:45:05;6.28;;;5.68;;
10343;SDS011;5217;43.960;10.954;2023-05-29T05:47:35;5.55;;;5.05;;
10343;SDS011;5217;43.960;10.954;2023-05-29T05:50:05;6.30;;;5.57;;
10343;SDS011;5217;43.960;10.954;2023-05-29T05:52:34;6.45;;;5.85;;
10343;SDS011;5217;43.960;10.954;2023-05-29T05:55:02;6.20;;;5.60;;
10343;SDS011;5217;43.960;10.954;2023-05-29T05:57:33;6.70;;;6.00;;
10343;SDS011;5217;43.960;10.954;2023-05-29T06:00:02;6.43;;;5.82;;
10343;SDS011;5217;43.960;10.954;2023-05-29T06:02:32;6.07;;;5.47;;
10343;SDS011;5217;43.960;10.954;2023-05-29T06:05:02;6.45;;;5.70;;
10343;SDS011;5217;43.960;10.954;2023-05-29T06:07:33;6.05;;;5.45;;
10343;SDS011;5217;43.960;10.954;2023-05-29T06:10:01;7.45;;;5.90;;
10343;SDS011;5217;43.960;10.954;2023-05-29T06:12:33;8.88;;;6.10;;
10343;SDS011;5217;43.960;10.954;2023-05-29T06:15:02;7.68;;;5.95;;
10343;SDS011;5217;43.960;10.954;2023-05-29T06:17:34;6.70;;;6.10;;
10343;SDS011;5217;43.960;10.954;2023-05-29T06:20:04;8.38;;;6.35;;
10343;SDS011;5217;43.960;10.954;2023-05-29T06:22:36;6.43;;;5.78;;
10343;SDS011;5217;43.960;10.954;2023-05-29T06:25:05;6.13;;;5.53;;
10343;SDS011;5217;43.960;10.954;2023-05-29T06:27:35;7.55;;;5.68;;
10343;SDS011;5217;43.960;10.954;2023-05-29T06:30:04;9.63;;;6.43;;
10343;SDS011;5217;43.960;10.954;2023-05-29T06:32:34;8.43;;;6.40;;
10343;SDS011;5217;43.960;10.954;2023-05-29T06:35:05;7.05;;;6.32;;
10343;SDS011;5217;43.960;10.954;2023-05-29T06:37:34;6.60;;;5.80;;
10343;SDS011;5217;43.960;10.954;2023-05-29T06:40:02;6.90;;;6.18;;
10343;SDS011;5217;43.960;10.954;2023-05-29T06:42:32;8.27;;;6.03;;
10343;SDS011;5217;43.960;10.954;2023-05-29T06:45:00;10.77;;;6.80;;
10343;SDS011;5217;43.960;10.954;2023-05-29T06:47:29;8.75;;;6.90;;
10343;SDS011;5217;43.960;10.954;2023-05-29T06:49:58;7.93;;;6.85;;
10343;SDS011;5217;43.960;10.954;2023-05-29T06:52:27;7.35;;;6.43;;
10343;SDS011;5217;43.960;10.954;2023-05-29T06:54:56;7.15;;;6.40;;
10343;SDS011;5217;43.960;10.954;2023-05-29T06:57:24;6.63;;;5.85;;
10343;SDS011;5217;43.960;10.954;2023-05-29T06:59:53;6.55;;;5.95;;
10343;SDS011;5217;43.960;10.954;2023-05-29T07:02:22;7.20;;;6.22;;
10343;SDS011;5217;43.960;10.954;2023-05-29T07:04:50;6.22;;;5.65;;
10343;SDS011;5217;43.960;10.954;2023-05-29T07:07:18;6.88;;;5.95;;
10343;SDS011;5217;43.960;10.954;2023-05-29T07:09:48;9.23;;;6.75;;
10343;SDS011;5217;43.960;10.954;2023-05-29T07:12:21;7.25;;;6.07;;
10343;SDS011;5217;43.960;10.954;2023-05-29T07:14:50;6.50;;;5.90;;
10343;SDS011;5217;43.960;10.954;2023-05-29T07:17:18;9.90;;;6.40;;
10343;SDS011;5217;43.960;10.954;2023-05-29T07:19:47;9.48;;;6.82;;
10343;SDS011;5217;43.960;10.954;2023-05-29T07:22:16;10.18;;;6.20;;
10343;SDS011;5217;43.960;10.954;2023-05-29T07:24:45;7.05;;;5.95;;
10343;SDS011;5217;43.960;10.954;2023-05-29T07:27:14;11.30;;;6.13;;
10343;SDS011;5217;43.960;10.954;2023-05-29T07:29:43;7.50;;;5.93;;
10343;SDS011;5217;43.960;10.954;2023-05-29T07:32:11;8.95;;;6.10;;
10343;SDS011;5217;43.960;10.954;2023-05-29T07:34:40;6.32;;;5.65;;
10343;SDS011;5217;43.960;10.954;2023-05-29T07:37:11;7.07;;;5.97;;
10343;SDS011;5217;43.960;10.954;2023-05-29T07:39:40;6.50;;;5.90;;
10343;SDS011;5217;43.960;10.954;2023-05-29T07:42:08;9.15;;;6.50;;
10343;SDS011;5217;43.960;10.954;2023-05-29T07:44:38;6.38;;;5.72;;
10343;SDS011;5217;43.960;10.954;2023-05-29T07:47:08;6.50;;;5.55;;
10343;SDS011;5217;43.960;10.954;2023-05-29T07:49:36;5.80;;;5.10;;
10343;SDS011;5217;43.960;10.954;2023-05-29T07:52:05;5.72;;;5.03;;
10343;SDS011;5217;43.960;10.954;2023-05-29T07:54:33;8.52;;;5.35;;
10343;SDS011;5217;43.960;10.954;2023-05-29T07:57:02;7.72;;;5.38;;
10343;SDS011;5217;43.960;10.954;2023-05-29T07:59:35;6.15;;;5.25;;
10343;SDS011;5217;43.960;10.954;2023-05-29T08:02:06;5.80;;;5.20;;
10343;SDS011;5217;43.960;10.954;2023-05-29T08:04:35;5.65;;;4.78;;
10343;SDS011;5217;43.960;10.954;2023-05-29T08:07:03;5.72;;;4.63;;
10343;SDS011;5217;43.960;10.954;2023-05-29T08:09:32;5.05;;;4.32;;
10343;SDS011;5217;43.960;10.954;2023-05-29T08:12:00;4.55;;;4.15;;
10343;SDS011;5217;43.960;10.954;2023-05-29T08:14:29;5.18;;;4.68;;
10343;SDS011;5217;43.960;10.954;2023-05-29T08:16:58;5.18;;;4.68;;
10343;SDS011;5217;43.960;10.954;2023-05-29T08:19:27;4.72;;;4.25;;
10343;SDS011;5217;43.960;10.954;2023-05-29T08:21:55;5.97;;;4.90;;
10343;SDS011;5217;43.960;10.954;2023-05-29T08:24:24;5.95;;;4.80;;
10343;SDS011;5217;43.960;10.954;2023-05-29T08:26:54;5.68;;;4.82;;
10343;SDS011;5217;43.960;10.954;2023-05-29T08:29:22;7.10;;;4.88;;
10343;SDS011;5217;43.960;10.954;2023-05-29T08:31:51;5.80;;;4.90;;
10343;SDS011;5217;43.960;10.954;2023-05-29T08:34:21;5.85;;;4.63;;
10343;SDS011;5217;43.960;10.954;2023-05-29T08:36:50;6.10;;;4.70;;
10343;SDS011;5217;43.960;10.954;2023-05-29T08:39:21;5.75;;;4.82;;
10343;SDS011;5217;43.960;10.954;2023-05-29T08:41:51;5.55;;;4.72;;
10343;SDS011;5217;43.960;10.954;2023-05-29T08:44:29;6.20;;;4.43;;
10343;SDS011;5217;43.960;10.954;2023-05-29T08:47:00;5.68;;;4.82;;
10343;SDS011;5217;43.960;10.954;2023-05-29T08:49:33;5.05;;;4.45;;
10343;SDS011;5217;43.960;10.954;2023-05-29T08:52:09;7.28;;;5.35;;
10343;SDS011;5217;43.960;10.954;2023-05-29T08:54:39;5.22;;;4.72;;
10343;SDS011;5217;43.960;10.954;2023-05-29T08:57:08;7.15;;;5.25;;
10343;SDS011;5217;43.960;10.954;2023-05-29T08:59:39;5.22;;;4.72;;
10343;SDS011;5217;43.960;10.954;2023-05-29T09:02:11;5.15;;;4.35;;
10343;SDS011;5217;43.960;10.954;2023-05-29T09:04:42;5.25;;;4.50;;
10343;SDS011;5217;43.960;10.954;2023-05-29T09:07:15;5.38;;;4.30;;
10343;SDS011;5217;43.960;10.954;2023-05-29T09:09:45;4.50;;;4.05;;
10343;SDS011;5217;43.960;10.954;2023-05-29T09:12:14;4.63;;;4.18;;
10343;SDS011;5217;43.960;10.954;2023-05-29T09:14:43;5.00;;;3.85;;
10343;SDS011;5217;43.960;10.954;2023-05-29T09:17:12;5.90;;;4.28;;
10343;SDS011;5217;43.960;10.954;2023-05-29T09:19:43;5.30;;;4.03;;
10343;SDS011;5217;43.960;10.954;2023-05-29T09:22:12;4.60;;;4.18;;
10343;SDS011;5217;43.960;10.954;2023-05-29T09:24:42;7.82;;;5.30;;
10343;SDS011;5217;43.960;10.954;2023-05-29T09:27:14;6.78;;;4.75;;
10343;SDS011;5217;43.960;10.954;2023-05-29T09:29:44;7.45;;;4.93;;
10343;SDS011;5217;43.960;10.954;2023-05-29T09:32:14;7.80;;;5.05;;
10343;SDS011;5217;43.960;10.954;2023-05-29T09:34:45;8.73;;;5.10;;
10343;SDS011;5217;43.960;10.954;2023-05-29T09:37:14;8.20;;;5.40;;
10343;SDS011;5217;43.960;10.954;2023-05-29T09:39:48;5.55;;;4.95;;
10343;SDS011;5217;43.960;10.954;2023-05-29T09:42:18;6.53;;;4.63;;
10343;SDS011;5217;43.960;10.954;2023-05-29T09:44:48;4.88;;;4.28;;
10343;SDS011;5217;43.960;10.954;2023-05-29T09:47:19;4.43;;;4.03;;
10343;SDS011;5217;43.960;10.954;2023-05-29T09:49:50;5.88;;;4.07;;
10343;SDS011;5217;43.960;10.954;2023-05-29T09:52:20;4.40;;;3.83;;
10343;SDS011;5217;43.960;10.954;2023-05-29T09:54:50;4.30;;;3.90;;
10343;SDS011;5217;43.960;10.954;2023-05-29T09:57:19;4.68;;;3.97;;
10343;SDS011;5217;43.960;10.954;2023-05-29T09:59:50;4.68;;;4.20;;
10343;SDS011;5217;43.960;10.954;2023-05-29T10:02:20;5.57;;;3.70;;
10343;SDS011;5217;43.960;10.954;2023-05-29T10:04:50;4.25;;;3.85;;
10343;SDS011;5217;43.960;10.954;2023-05-29T10:07:20;3.75;;;3.30;;
10343;SDS011;5217;43.960;10.954;2023-05-29T10:10:04;4.38;;;3.70;;
10343;SDS011;5217;43.960;10.954;2023-05-29T10:12:36;4.53;;;3.70;;
10343;SDS011;5217;43.960;10.954;2023-05-29T10:15:06;3.67;;;3.33;;
10343;SDS011;5217;43.960;10.954;2023-05-29T10:17:39;4.78;;;3.70;;
10343;SDS011;5217;43.960;10.954;2023-05-29T10:20:19;5.30;;;3.83;;
10343;SDS011;5217;43.960;10.954;2023-05-29T10:22:50;5.60;;;3.70;;
10343;SDS011;5217;43.960;10.954;2023-05-29T10:25:20;4.28;;;3.72;;
10343;SDS011;5217;43.960;10.954;2023-05-29T10:27:48;5.38;;;3.58;;
10343;SDS011;5217;43.960;10.954;2023-05-29T10:30:21;6.97;;;4.22;;
10343;SDS011;5217;43.960;10.954;2023-05-29T10:33:00;4.72;;;4.25;;
10343;SDS011;5217;43.960;10.954;2023-05-29T10:35:47;4.32;;;3.92;;
10343;SDS011;5217;43.960;10.954;2023-05-29T10:38:22;3.95;;;3.58;;
10343;SDS011;5217;43.960;10.954;2023-05-29T10:40:53;4.22;;;3.83;;
10343;SDS011;5217;43.960;10.954;2023-05-29T10:43:30;4.38;;;3.97;;
10343;SDS011;5217;43.960;10.954;2023-05-29T10:46:00;4.20;;;3.80;;
10343;SDS011;5217;43.960;10.954;2023-05-29T10:48:41;4.18;;;3.85;;
10343;SDS011;5217;43.960;10.954;2023-05-29T10:53:57;4.55;;;3.90;;
10343;SDS011;5217;43.960;10.954;2023-05-29T10:56:28;7.90;;;4.20;;
10343;SDS011;5217;43.960;10.954;2023-05-29T10:58:58;4.63;;;4.22;;
10343;SDS011;5217;43.960;10.954;2023-05-29T11:01:28;6.03;;;4.72;;
10343;SDS011;5217;43.960;10.954;2023-05-29T11:06:56;4.85;;;3.75;;
10343;SDS011;5217;43.960;10.954;2023-05-29T11:09:28;5.10;;;4.07;;
10343;SDS011;5217;43.960;10.954;2023-05-29T11:12:13;5.78;;;4.18;;
10343;SDS011;5217;43.960;10.954;2023-05-29T11:14:55;4.85;;;4.40;;
10343;SDS011;5217;43.960;10.954;2023-05-29T11:17:32;5.10;;;4.57;;
10343;SDS011;5217;43.960;10.954;2023-05-29T11:20:16;4.85;;;4.32;;
10343;SDS011;5217;43.960;10.954;2023-05-29T11:23:00;5.53;;;4.60;;
10343;SDS011;5217;43.960;10.954;2023-05-29T11:25:32;9.50;;;5.13;;
10343;SDS011;5217;43.960;10.954;2023-05-29T11:28:03;8.55;;;5.75;;
10343;SDS011;5217;43.960;10.954;2023-05-29T11:30:44;10.70;;;6.72;;
10343;SDS011;5217;43.960;10.954;2023-05-29T11:33:23;9.70;;;5.55;;
10343;SDS011;5217;43.960;10.954;2023-05-29T11:35:56;9.23;;;5.68;;
10343;SDS011;5217;43.960;10.954;2023-05-29T11:38:27;17.70;;;7.35;;
10343;SDS011;5217;43.960;10.954;2023-05-29T11:40:56;40.85;;;11.30;;
10343;SDS011;5217;43.960;10.954;2023-05-29T11:43:25;23.00;;;9.00;;
10343;SDS011;5217;43.960;10.954;2023-05-29T11:45:53;13.35;;;6.40;;
10343;SDS011;5217;43.960;10.954;2023-05-29T11:48:23;10.65;;;5.40;;
10343;SDS011;5217;43.960;10.954;2023-05-29T11:50:52;5.32;;;4.75;;
10343;SDS011;5217;43.960;10.954;2023-05-29T11:53:20;5.28;;;4.60;;
10343;SDS011;5217;43.960;10.954;2023-05-29T11:55:50;4.60;;;4.18;;
10343;SDS011;5217;43.960;10.954;2023-05-29T11:58:19;5.10;;;4.60;;
10343;SDS011;5217;43.960;10.954;2023-05-29T12:00:49;4.72;;;4.32;;
10343;SDS011;5217;43.960;10.954;2023-05-29T12:03:17;4.60;;;4.20;;
10343;SDS011;5217;43.960;10.954;2023-05-29T12:05:47;5.03;;;4.53;;
10343;SDS011;5217;43.960;10.954;2023-05-29T12:08:20;6.15;;;4.40;;
10343;SDS011;5217;43.960;10.954;2023-05-29T12:10:52;4.60;;;4.20;;
10343;SDS011;5217;43.960;10.954;2023-05-29T12:13:21;4.45;;;4.05;;
10343;SDS011;5217;43.960;10.954;2023-05-29T12:15:51;4.47;;;4.07;;
10343;SDS011;5217;43.960;10.954;2023-05-29T12:18:22;5.53;;;4.30;;
10343;SDS011;5217;43.960;10.954;2023-05-29T12:20:51;5.00;;;4.30;;
10343;SDS011;5217;43.960;10.954;2023-05-29T12:23:25;5.28;;;4.55;;
10343;SDS011;5217;43.960;10.954;2023-05-29T12:25:56;5.78;;;4.07;;
10343;SDS011;5217;43.960;10.954;2023-05-29T12:28:26;4.85;;;4.45;;
10343;SDS011;5217;43.960;10.954;2023-05-29T12:30:58;4.68;;;4.15;;
10343;SDS011;5217;43.960;10.954;2023-05-29T12:33:28;4.88;;;4.38;;
10343;SDS011;5217;43.960;10.954;2023-05-29T12:36:04;5.13;;;4.57;;
10343;SDS011;5217;43.960;10.954;2023-05-29T12:41:23;4.60;;;4.10;;
10343;SDS011;5217;43.960;10.954;2023-05-29T12:43:53;4.50;;;4.10;;
10343;SDS011;5217;43.960;10.954;2023-05-29T12:46:23;5.68;;;4.70;;
10343;SDS011;5217;43.960;10.954;2023-05-29T12:48:52;4.93;;;4.43;;
10343;SDS011;5217;43.960;10.954;2023-05-29T12:51:24;4.85;;;4.32;;
10343;SDS011;5217;43.960;10.954;2023-05-29T12:53:53;4.60;;;4.20;;
10343;SDS011;5217;43.960;10.954;2023-05-29T12:56:25;4.68;;;4.20;;
10343;SDS011;5217;43.960;10.954;2023-05-29T12:58:54;5.18;;;4.13;;
10343;SDS011;5217;43.960;10.954;2023-05-29T13:01:22;6.55;;;4.10;;
10343;SDS011;5217;43.960;10.954;2023-05-29T13:03:51;4.63;;;4.20;;
10343;SDS011;5217;43.960;10.954;2023-05-29T13:06:19;4.88;;;4.40;;
10343;SDS011;5217;43.960;10.954;2023-05-29T13:08:48;5.00;;;4.60;;
10343;SDS011;5217;43.960;10.954;2023-05-29T13:11:16;4.63;;;4.22;;
10343;SDS011;5217;43.960;10.954;2023-05-29T13:13:46;5.07;;;4.25;;
10343;SDS011;5217;43.960;10.954;2023-05-29T13:16:14;4.95;;;4.45;;
10343;SDS011;5217;43.960;10.954;2023-05-29T13:18:44;4.75;;;4.28;;
10343;SDS011;5217;43.960;10.954;2023-05-29T13:21:13;4.82;;;4.30;;
10343;SDS011;5217;43.960;10.954;2023-05-29T13:23:41;4.55;;;4.15;;
10343;SDS011;5217;43.960;10.954;2023-05-29T13:26:09;4.88;;;4.20;;
10343;SDS011;5217;43.960;10.954;2023-05-29T13:28:38;6.60;;;4.47;;
10343;SDS011;5217;43.960;10.954;2023-05-29T13:31:08;5.60;;;4.38;;
10343;SDS011;5217;43.960;10.954;2023-05-29T13:33:36;4.35;;;3.95;;
10343;SDS011;5217;43.960;10.954;2023-05-29T13:36:05;5.03;;;4.53;;
10343;SDS011;5217;43.960;10.954;2023-05-29T13:38:33;4.35;;;3.83;;
10343;SDS011;5217;43.960;10.954;2023-05-29T13:41:02;4.75;;;4.35;;
10343;SDS011;5217;43.960;10.954;2023-05-29T13:43:30;5.45;;;4.38;;
10343;SDS011;5217;43.960;10.954;2023-05-29T13:46:11;4.82;;;4.40;;
10343;SDS011;5217;43.960;10.954;2023-05-29T13:48:40;5.47;;;4.35;;
10343;SDS011;5217;43.960;10.954;2023-05-29T13:51:09;6.60;;;4.57;;
10343;SDS011;5217;43.960;10.954;2023-05-29T13:53:37;4.63;;;4.18;;
10343;SDS011;5217;43.960;10.954;2023-05-29T13:56:05;5.88;;;4.80;;
10343;SDS011;5217;43.960;10.954;2023-05-29T13:58:34;5.45;;;4.18;;
10343;SDS011;5217;43.960;10.954;2023-05-29T14:01:02;4.40;;;4.00;;
10343;SDS011;5217;43.960;10.954;2023-05-29T14:03:32;4.65;;;4.25;;
10343;SDS011;5217;43.960;10.954;2023-05-29T14:06:01;5.93;;;4.18;;
10343;SDS011;5217;43.960;10.954;2023-05-29T14:08:31;4.75;;;3.92;;
10343;SDS011;5217;43.960;10.954;2023-05-29T14:11:00;4.45;;;4.05;;
10343;SDS011;5217;43.960;10.954;2023-05-29T14:13:28;4.43;;;4.03;;
10343;SDS011;5217;43.960;10.954;2023-05-29T14:15:56;5.35;;;4.15;;
10343;SDS011;5217;43.960;10.954;2023-05-29T14:18:25;4.35;;;3.90;;
10343;SDS011;5217;43.960;10.954;2023-05-29T14:20:55;6.63;;;4.45;;
10343;SDS011;5217;43.960;10.954;2023-05-29T14:23:23;7.07;;;5.78;;
10343;SDS011;5217;43.960;10.954;2023-05-29T14:25:52;8.30;;;6.40;;
10343;SDS011;5217;43.960;10.954;2023-05-29T14:28:21;8.95;;;5.40;;
10343;SDS011;5217;43.960;10.954;2023-05-29T14:30:49;7.00;;;5.93;;
10343;SDS011;5217;43.960;10.954;2023-05-29T14:33:17;6.85;;;5.40;;
10343;SDS011;5217;43.960;10.954;2023-05-29T14:35:46;8.02;;;5.35;;
10343;SDS011;5217;43.960;10.954;2023-05-29T14:38:16;5.68;;;4.32;;
10343;SDS011;5217;43.960;10.954;2023-05-29T14:40:44;5.57;;;4.72;;
10343;SDS011;5217;43.960;10.954;2023-05-29T14:43:32;5.00;;;4.22;;
10343;SDS011;5217;43.960;10.954;2023-05-29T14:46:01;4.32;;;3.72;;
10343;SDS011;5217;43.960;10.954;2023-05-29T14:48:29;4.47;;;3.80;;
10343;SDS011;5217;43.960;10.954;2023-05-29T14:50:58;4.75;;;4.25;;
10343;SDS011;5217;43.960;10.954;2023-05-29T14:53:28;4.70;;;4.10;;
10343;SDS011;5217;43.960;10.954;2023-05-29T14:55:57;4.47;;;4.07;;
10343;SDS011;5217;43.960;10.954;2023-05-29T14:58:26;4.43;;;4.00;;
10343;SDS011;5217;43.960;10.954;2023-05-29T15:00:54;4.35;;;3.95;;
10343;SDS011;5217;43.960;10.954;2023-05-29T15:03:24;4.70;;;4.20;;
10343;SDS011;5217;43.960;10.954;2023-05-29T15:05:53;4.72;;;4.20;;
10343;SDS011;5217;43.960;10.954;2023-05-29T15:08:22;6.90;;;4.05;;
10343;SDS011;5217;43.960;10.954;2023-05-29T15:10:52;4.68;;;4.10;;
10343;SDS011;5217;43.960;10.954;2023-05-29T15:13:20;4.28;;;3.88;;